aviador You're here:

SCMK Decoded Metar

in
Report Time2017-08-17 13:00:00
UTC Time2017-08-17 13:29:53
Flight Rules vfr VFR
Wind300° at 05 kt
W.Rank300° ranks 17
Current wind is below 300° avg. (7.6)
Visibility9999 m
Phenomena:Light Rain
Clouds:Scattered 015 Hf
Overcast 040 Hf
Expected CloudBase > 400 ft AGL from Temp-Dew spread
Ceiling4,000 ft
Temp10°C
Dew Point09°C (94% RH)
AAT8.0°C
QNH1008 hPa
Raw Report
SCMK 171300Z 30005KT 9999 -RA SCT015 OVC040 10/09 Q1008=

Extra information for SCMK:More info

Social comments